Time;durP1;ratioP1;P1;durP2;ratioP2;P2;SDS_P1;SDS_P2;PMS_P1;PMS_P2;Temp;Humidity;BMP_temperature;BMP_pressure;BME280_temperature;BME280_humidity;BME280_pressure;Samples;Min_cycle;Max_cycle;Signal;HPM_P1;HPM_P2
2023/05/09 00:01:30;;;;;;;4.55;2.55;;;;;;;;;;5051555;28;20037;-79
2023/05/09 00:03:58;;;;;;;5.05;2.42;;;;;;;;;;5042717;28;20045;-79
2023/05/09 00:06:24;;;;;;;5.90;2.65;;;;;;;;;;5051937;28;20527;-80
2023/05/09 00:08:50;;;;;;;4.43;2.63;;;;;;;;;;5052655;28;20035;-80
2023/05/09 00:11:15;;;;;;;5.32;2.67;;;;;;;;;;5052425;28;20036;-80
2023/05/09 00:13:42;;;;;;;5.78;2.65;;;;;;;;;;5038228;28;20553;-79
2023/05/09 00:16:09;;;;;;;5.75;2.78;;;;;;;;;;5051308;28;20044;-80
2023/05/09 00:18:35;;;;;;;7.25;2.60;;;;;;;;;;5051644;28;20488;-80
2023/05/09 00:21:02;;;;;;;4.72;2.40;;;;;;;;;;5053704;28;20459;-79
2023/05/09 00:23:29;;;;;;;5.13;2.78;;;;;;;;;;5036445;28;20579;-80
2023/05/09 00:25:54;;;;;;;6.85;2.47;;;;;;;;;;5047434;28;20033;-79
2023/05/09 00:28:19;;;;;;;4.72;2.53;;;;;;;;;;5048618;28;20056;-79
2023/05/09 00:30:45;;;;;;;5.22;2.63;;;;;;;;;;5058344;28;21032;-79
2023/05/09 00:33:10;;;;;;;7.25;2.60;;;;;;;;;;5052448;28;20037;-80
2023/05/09 00:35:36;;;;;;;4.97;2.35;;;;;;;;;;5055510;28;20171;-80
2023/05/09 00:38:01;;;;;;;5.47;2.47;;;;;;;;;;5054947;28;20085;-79
2023/05/09 00:40:26;;;;;;;5.10;2.53;;;;;;;;;;5055421;28;20500;-79
2023/05/09 00:42:52;;;;;;;6.03;2.75;;;;;;;;;;5051587;28;20500;-79
2023/05/09 00:45:17;;;;;;;5.30;2.33;;;;;;;;;;5050769;28;20036;-79
2023/05/09 00:47:42;;;;;;;5.22;2.33;;;;;;;;;;5045197;28;20024;-80
2023/05/09 00:50:08;;;;;;;6.25;2.55;;;;;;;;;;5052990;28;20043;-80
2023/05/09 00:52:35;;;;;;;4.97;2.00;;;;;;;;;;5042072;28;20037;-79
2023/05/09 00:55:01;;;;;;;5.40;2.35;;;;;;;;;;5044290;28;20044;-79
2023/05/09 00:57:26;;;;;;;4.13;2.20;;;;;;;;;;5036190;28;20036;-79
2023/05/09 00:59:52;;;;;;;4.20;2.10;;;;;;;;;;5055244;28;20036;-80
2023/05/09 01:02:17;;;;;;;4.50;2.35;;;;;;;;;;5049659;28;20032;-81
2023/05/09 01:04:44;;;;;;;4.47;2.13;;;;;;;;;;5050793;28;20047;-81
2023/05/09 01:07:33;;;;;;;5.53;2.33;;;;;;;;;;5051832;28;20024;-80
2023/05/09 01:10:14;;;;;;;5.18;2.40;;;;;;;;;;5051507;28;20104;-80
2023/05/09 01:12:50;;;;;;;7.55;2.20;;;;;;;;;;5058614;28;20121;-80
2023/05/09 01:15:48;;;;;;;6.07;2.60;;;;;;;;;;5052734;28;20044;-80
2023/05/09 01:18:33;;;;;;;5.10;2.50;;;;;;;;;;5040709;28;20036;-81
2023/05/09 01:21:10;;;;;;;4.57;2.20;;;;;;;;;;5031088;28;20411;-81
2023/05/09 01:23:44;;;;;;;4.10;2.00;;;;;;;;;;5046138;28;20412;-81
2023/05/09 01:26:42;;;;;;;3.97;1.90;;;;;;;;;;5053801;28;20044;-81
2023/05/09 01:29:30;;;;;;;4.22;2.13;;;;;;;;;;5048509;28;20045;-80
2023/05/09 01:31:56;;;;;;;3.90;2.10;;;;;;;;;;5052465;28;20037;-81
2023/05/09 01:34:25;;;;;;;4.45;2.22;;;;;;;;;;5046842;28;20103;-81
2023/05/09 01:36:55;;;;;;;4.88;2.33;;;;;;;;;;5052504;28;20033;-81
2023/05/09 01:39:21;;;;;;;4.68;2.05;;;;;;;;;;5063396;28;20500;-80
2023/05/09 01:41:48;;;;;;;4.85;2.10;;;;;;;;;;5051990;28;20481;-81
2023/05/09 01:44:14;;;;;;;3.77;1.93;;;;;;;;;;5055153;28;20033;-81
2023/05/09 01:46:40;;;;;;;5.68;2.20;;;;;;;;;;5045591;28;20654;-81
2023/05/09 01:49:06;;;;;;;6.57;2.05;;;;;;;;;;5053101;28;20031;-80
2023/05/09 01:51:33;;;;;;;4.20;1.80;;;;;;;;;;5055571;28;20459;-80
2023/05/09 01:54:00;;;;;;;4.65;2.00;;;;;;;;;;5054269;28;20029;-80
2023/05/09 01:56:26;;;;;;;4.23;2.07;;;;;;;;;;5041517;28;20711;-80
2023/05/09 01:58:53;;;;;;;3.90;2.00;;;;;;;;;;5055129;28;20456;-80
2023/05/09 02:01:18;;;;;;;4.13;2.00;;;;;;;;;;5034453;28;20079;-81
2023/05/09 02:03:44;;;;;;;5.78;2.17;;;;;;;;;;5021440;28;20033;-80
2023/05/09 02:06:10;;;;;;;3.30;1.73;;;;;;;;;;5056204;28;20032;-80
2023/05/09 02:08:36;;;;;;;4.07;2.08;;;;;;;;;;5055113;28;20135;-81
2023/05/09 02:11:01;;;;;;;6.35;2.30;;;;;;;;;;5051622;28;20058;-81
2023/05/09 02:13:27;;;;;;;4.35;2.38;;;;;;;;;;5054914;28;20037;-79
2023/05/09 02:15:53;;;;;;;3.65;1.83;;;;;;;;;;5056865;28;20082;-81
2023/05/09 02:18:18;;;;;;;5.47;2.00;;;;;;;;;;5057796;28;20545;-81
2023/05/09 02:20:44;;;;;;;3.97;2.10;;;;;;;;;;5039359;28;20037;-80
2023/05/09 02:23:10;;;;;;;4.50;2.20;;;;;;;;;;5045117;28;20029;-79
2023/05/09 02:25:35;;;;;;;3.40;1.80;;;;;;;;;;5051196;28;20124;-78
2023/05/09 02:28:01;;;;;;;4.50;2.17;;;;;;;;;;5040207;28;20116;-81
2023/05/09 02:30:31;;;;;;;4.75;2.35;;;;;;;;;;5051439;28;20070;-81
2023/05/09 02:33:02;;;;;;;6.38;2.38;;;;;;;;;;5056164;28;20037;-80
2023/05/09 02:35:28;;;;;;;4.95;2.00;;;;;;;;;;5051131;28;20132;-80
2023/05/09 02:37:53;;;;;;;4.72;1.92;;;;;;;;;;5056732;28;20135;-80
2023/05/09 02:40:19;;;;;;;4.45;1.88;;;;;;;;;;5038464;28;20044;-81
2023/05/09 02:42:45;;;;;;;3.83;1.67;;;;;;;;;;5053195;28;20440;-78
2023/05/09 02:45:10;;;;;;;3.50;2.08;;;;;;;;;;5056397;28;20051;-79
2023/05/09 02:47:36;;;;;;;4.72;2.33;;;;;;;;;;5051763;28;20032;-80
2023/05/09 02:50:02;;;;;;;4.40;2.05;;;;;;;;;;5054969;28;20037;-81
2023/05/09 02:52:28;;;;;;;4.00;1.90;;;;;;;;;;5056793;28;20467;-80
2023/05/09 02:54:53;;;;;;;4.57;1.88;;;;;;;;;;5055637;28;20036;-81
2023/05/09 02:57:19;;;;;;;4.68;2.25;;;;;;;;;;5048838;28;20091;-80
2023/05/09 02:59:45;;;;;;;5.65;1.80;;;;;;;;;;5056499;28;20500;-81
2023/05/09 03:02:10;;;;;;;5.82;2.10;;;;;;;;;;5055478;28;20038;-81
2023/05/09 03:04:36;;;;;;;3.90;1.90;;;;;;;;;;5055263;28;20041;-81
2023/05/09 03:07:01;;;;;;;5.30;2.00;;;;;;;;;;5058851;28;20044;-79
2023/05/09 03:09:27;;;;;;;5.47;2.38;;;;;;;;;;5052619;28;20044;-79
2023/05/09 03:11:53;;;;;;;4.93;2.22;;;;;;;;;;5054682;28;20570;-79
2023/05/09 03:14:19;;;;;;;5.18;2.10;;;;;;;;;;5054310;28;20623;-80
2023/05/09 03:16:44;;;;;;;4.10;1.80;;;;;;;;;;5051528;28;20051;-81
2023/05/09 03:19:09;;;;;;;4.03;2.00;;;;;;;;;;5049872;28;20393;-80
2023/05/09 03:21:35;;;;;;;3.83;1.70;;;;;;;;;;5053511;28;20093;-80
2023/05/09 03:24:00;;;;;;;4.35;1.80;;;;;;;;;;5053907;28;20035;-79
2023/05/09 03:26:26;;;;;;;4.15;1.85;;;;;;;;;;5039532;28;20068;-79
2023/05/09 03:28:51;;;;;;;4.38;2.00;;;;;;;;;;5050835;28;20401;-80
2023/05/09 03:31:16;;;;;;;5.95;1.80;;;;;;;;;;5040998;28;20189;-80
2023/05/09 03:33:42;;;;;;;3.70;1.80;;;;;;;;;;5051414;28;20037;-80
2023/05/09 03:36:07;;;;;;;3.42;1.75;;;;;;;;;;5052641;28;20492;-81
2023/05/09 03:38:33;;;;;;;5.38;2.08;;;;;;;;;;5051229;28;20040;-81
2023/05/09 03:40:58;;;;;;;6.78;2.10;;;;;;;;;;5046655;28;20045;-80
2023/05/09 03:43:23;;;;;;;3.85;2.00;;;;;;;;;;5052863;28;20048;-80
2023/05/09 03:45:49;;;;;;;4.75;2.28;;;;;;;;;;5047829;28;20105;-81
2023/05/09 03:48:15;;;;;;;5.88;2.03;;;;;;;;;;5049568;28;20059;-81
2023/05/09 03:50:40;;;;;;;5.00;2.25;;;;;;;;;;5041221;28;20429;-79
2023/05/09 03:53:06;;;;;;;4.97;1.85;;;;;;;;;;5044156;28;20094;-79
2023/05/09 03:55:31;;;;;;;5.00;2.05;;;;;;;;;;5048259;28;20029;-79
2023/05/09 03:57:56;;;;;;;4.25;1.88;;;;;;;;;;5041256;28;20036;-79
2023/05/09 04:00:22;;;;;;;5.72;2.03;;;;;;;;;;5018741;28;20413;-79
2023/05/09 04:02:48;;;;;;;4.63;2.08;;;;;;;;;;5050544;28;20067;-82
2023/05/09 04:05:14;;;;;;;5.10;2.30;;;;;;;;;;5053113;28;20125;-82
2023/05/09 04:07:39;;;;;;;4.05;2.08;;;;;;;;;;5043837;28;20037;-81
2023/05/09 04:10:05;;;;;;;3.90;1.80;;;;;;;;;;5053661;28;20115;-82
2023/05/09 04:12:30;;;;;;;4.30;1.98;;;;;;;;;;5050056;28;20041;-81
2023/05/09 04:14:56;;;;;;;5.28;2.20;;;;;;;;;;5051926;28;20271;-80
2023/05/09 04:17:21;;;;;;;4.43;1.75;;;;;;;;;;5043817;28;20040;-80
2023/05/09 04:19:46;;;;;;;7.53;2.20;;;;;;;;;;5038891;28;20048;-80
2023/05/09 04:22:12;;;;;;;6.63;2.00;;;;;;;;;;5048745;28;20121;-80
2023/05/09 04:24:37;;;;;;;3.90;1.80;;;;;;;;;;5044154;28;20045;-81
2023/05/09 04:27:03;;;;;;;5.05;2.10;;;;;;;;;;5053155;28;20488;-80
2023/05/09 04:29:28;;;;;;;5.03;1.85;;;;;;;;;;5043055;28;20033;-79
2023/05/09 04:31:53;;;;;;;7.53;1.98;;;;;;;;;;5050261;28;20087;-80
2023/05/09 04:34:19;;;;;;;4.90;1.95;;;;;;;;;;5055943;28;20529;-81
2023/05/09 04:36:45;;;;;;;4.90;1.75;;;;;;;;;;5052187;28;20049;-78
2023/05/09 04:39:11;;;;;;;5.53;2.22;;;;;;;;;;5037267;28;20471;-78
2023/05/09 04:41:37;;;;;;;5.13;1.90;;;;;;;;;;5051354;28;20477;-79
2023/05/09 04:44:02;;;;;;;5.25;2.28;;;;;;;;;;5049529;28;20037;-80
2023/05/09 04:46:28;;;;;;;3.80;1.85;;;;;;;;;;5051407;28;20060;-78
2023/05/09 04:48:53;;;;;;;7.68;2.00;;;;;;;;;;5056301;28;20041;-79
2023/05/09 04:51:18;;;;;;;3.65;1.80;;;;;;;;;;5055599;28;20049;-80
2023/05/09 04:53:44;;;;;;;4.03;2.00;;;;;;;;;;5040877;28;20455;-80
2023/05/09 04:56:09;;;;;;;4.43;2.05;;;;;;;;;;5046953;28;20108;-80
2023/05/09 04:58:37;;;;;;;6.35;2.10;;;;;;;;;;5057460;28;20499;-80
2023/05/09 05:01:04;;;;;;;5.05;1.90;;;;;;;;;;5039996;28;20037;-80
2023/05/09 05:03:29;;;;;;;6.35;2.22;;;;;;;;;;5038303;28;20407;-80
2023/05/09 05:05:55;;;;;;;5.10;1.90;;;;;;;;;;5039441;28;20040;-80
2023/05/09 05:08:20;;;;;;;4.93;1.95;;;;;;;;;;5056395;28;20055;-81
2023/05/09 05:10:47;;;;;;;4.03;1.75;;;;;;;;;;5055857;28;20040;-80
2023/05/09 05:13:13;;;;;;;4.00;1.70;;;;;;;;;;5057904;28;20037;-77
2023/05/09 05:15:38;;;;;;;5.43;1.95;;;;;;;;;;5060187;28;20511;-77
2023/05/09 05:18:03;;;;;;;6.00;2.10;;;;;;;;;;5064272;28;20058;-77
2023/05/09 05:20:29;;;;;;;4.40;2.10;;;;;;;;;;5054291;28;20824;-81
2023/05/09 05:22:54;;;;;;;4.10;2.20;;;;;;;;;;5051628;28;20033;-80
2023/05/09 05:25:21;;;;;;;7.80;2.28;;;;;;;;;;5051522;28;20044;-80
2023/05/09 05:27:46;;;;;;;5.45;2.45;;;;;;;;;;5049487;28;20139;-80
2023/05/09 05:30:15;;;;;;;5.15;2.00;;;;;;;;;;5047226;28;20135;-81
2023/05/09 05:32:41;;;;;;;4.43;2.05;;;;;;;;;;5037064;28;20128;-79
2023/05/09 05:35:06;;;;;;;5.82;2.00;;;;;;;;;;5017317;28;20120;-80
2023/05/09 05:37:32;;;;;;;4.55;2.30;;;;;;;;;;5050252;28;20033;-78
2023/05/09 05:39:57;;;;;;;6.03;3.28;;;;;;;;;;5056070;28;20041;-79
2023/05/09 05:42:23;;;;;;;4.43;2.30;;;;;;;;;;5055926;28;20784;-79
2023/05/09 05:44:48;;;;;;;3.97;2.13;;;;;;;;;;5057480;28;20045;-79
2023/05/09 05:47:13;;;;;;;3.45;1.92;;;;;;;;;;5058439;28;20032;-80
2023/05/09 05:49:39;;;;;;;4.63;2.10;;;;;;;;;;5055676;28;20563;-79
2023/05/09 05:52:04;;;;;;;3.90;2.10;;;;;;;;;;5053723;28;20059;-80
2023/05/09 05:54:30;;;;;;;4.88;2.22;;;;;;;;;;5054530;28;20059;-79
2023/05/09 05:56:58;;;;;;;4.85;2.00;;;;;;;;;;5052410;28;20040;-81
2023/05/09 05:59:24;;;;;;;3.70;1.88;;;;;;;;;;5039073;28;20549;-80
2023/05/09 06:01:49;;;;;;;4.00;2.00;;;;;;;;;;5055750;28;20155;-79
2023/05/09 06:04:14;;;;;;;4.65;1.70;;;;;;;;;;5056359;28;20106;-80
2023/05/09 06:06:40;;;;;;;6.82;2.00;;;;;;;;;;5054648;28;20171;-79
2023/05/09 06:09:05;;;;;;;2.97;1.75;;;;;;;;;;5056620;28;20090;-80
2023/05/09 06:11:30;;;;;;;3.83;1.70;;;;;;;;;;5055305;28;20036;-79
2023/05/09 06:13:56;;;;;;;5.30;2.00;;;;;;;;;;5056750;28;20059;-80
2023/05/09 06:16:21;;;;;;;4.03;1.70;;;;;;;;;;5053480;28;20348;-79
2023/05/09 06:18:50;;;;;;;3.97;1.90;;;;;;;;;;5054878;28;20058;-79
2023/05/09 06:21:15;;;;;;;4.63;1.75;;;;;;;;;;5052581;28;20378;-80
2023/05/09 06:23:41;;;;;;;4.50;2.05;;;;;;;;;;5055001;28;20044;-80
2023/05/09 06:26:06;;;;;;;4.43;2.22;;;;;;;;;;5048931;28;20044;-80
2023/05/09 06:28:31;;;;;;;6.70;1.80;;;;;;;;;;5035896;28;20044;-80
2023/05/09 06:30:57;;;;;;;3.90;1.80;;;;;;;;;;5054414;28;20695;-78
2023/05/09 06:33:22;;;;;;;4.15;1.92;;;;;;;;;;5056193;28;20131;-80
2023/05/09 06:35:48;;;;;;;3.63;1.80;;;;;;;;;;5053052;28;20100;-79
2023/05/09 06:38:13;;;;;;;3.58;1.77;;;;;;;;;;5055622;28;20025;-78
2023/05/09 06:40:38;;;;;;;3.83;1.80;;;;;;;;;;5048618;28;20560;-80
2023/05/09 06:43:04;;;;;;;4.03;1.77;;;;;;;;;;5034887;28;20056;-81
2023/05/09 06:45:29;;;;;;;4.30;1.75;;;;;;;;;;5057474;28;20044;-80
2023/05/09 06:47:55;;;;;;;4.25;1.75;;;;;;;;;;5053837;28;20459;-80
2023/05/09 06:50:20;;;;;;;4.65;2.05;;;;;;;;;;5052213;28;20032;-80
2023/05/09 06:52:46;;;;;;;4.93;1.65;;;;;;;;;;5055439;28;20041;-80
2023/05/09 06:55:11;;;;;;;3.60;1.55;;;;;;;;;;5038998;28;20079;-79
2023/05/09 06:57:39;;;;;;;5.53;1.88;;;;;;;;;;5045211;28;20047;-80
2023/05/09 07:00:05;;;;;;;3.72;2.00;;;;;;;;;;5054948;28;20377;-79
2023/05/09 07:02:30;;;;;;;7.22;2.25;;;;;;;;;;5051184;28;20500;-78
2023/05/09 07:04:56;;;;;;;6.35;2.10;;;;;;;;;;5053654;28;20044;-80
2023/05/09 07:07:21;;;;;;;3.72;1.73;;;;;;;;;;5052296;28;20048;-80
2023/05/09 07:09:46;;;;;;;4.72;1.90;;;;;;;;;;5050330;28;20049;-81
2023/05/09 07:12:12;;;;;;;4.57;1.88;;;;;;;;;;5036267;28;20033;-80
2023/05/09 07:14:37;;;;;;;4.72;1.98;;;;;;;;;;5052377;28;20041;-79
2023/05/09 07:17:03;;;;;;;4.40;2.05;;;;;;;;;;5053822;28;20055;-80
2023/05/09 07:19:28;;;;;;;3.67;1.77;;;;;;;;;;5054540;28;20054;-79
2023/05/09 07:21:53;;;;;;;5.65;1.90;;;;;;;;;;5055189;28;20122;-80
2023/05/09 07:24:19;;;;;;;5.38;1.90;;;;;;;;;;5053241;28;20033;-80
2023/05/09 07:26:44;;;;;;;5.80;1.80;;;;;;;;;;5051639;28;20439;-80
2023/05/09 07:29:09;;;;;;;3.92;1.83;;;;;;;;;;5050681;28;20519;-79
2023/05/09 07:31:35;;;;;;;4.35;1.60;;;;;;;;;;5052767;28;20040;-80
2023/05/09 07:34:00;;;;;;;4.55;2.15;;;;;;;;;;5044852;28;20028;-80
2023/05/09 07:36:26;;;;;;;6.72;1.92;;;;;;;;;;5053077;28;20041;-80
2023/05/09 07:38:52;;;;;;;6.53;2.20;;;;;;;;;;5052589;28;20044;-81
2023/05/09 07:41:18;;;;;;;4.05;1.63;;;;;;;;;;5051008;28;20045;-79
2023/05/09 07:43:44;;;;;;;4.60;2.15;;;;;;;;;;5051945;28;20047;-80
2023/05/09 07:46:09;;;;;;;4.30;1.80;;;;;;;;;;5051084;28;20557;-80
2023/05/09 07:48:35;;;;;;;5.28;1.92;;;;;;;;;;5051822;28;20040;-80
2023/05/09 07:51:00;;;;;;;4.35;2.03;;;;;;;;;;5053347;28;20404;-80
2023/05/09 07:53:25;;;;;;;3.85;1.90;;;;;;;;;;5055286;28;20049;-80
2023/05/09 07:55:51;;;;;;;4.63;1.63;;;;;;;;;;5052155;28;20583;-80
2023/05/09 07:58:17;;;;;;;3.35;1.67;;;;;;;;;;5051430;28;20611;-80
2023/05/09 08:00:42;;;;;;;4.35;1.77;;;;;;;;;;5037263;28;20132;-80
2023/05/09 08:03:08;;;;;;;3.75;1.88;;;;;;;;;;5041728;28;20039;-80
2023/05/09 08:05:33;;;;;;;5.35;2.10;;;;;;;;;;5048315;28;20451;-79
2023/05/09 08:08:01;;;;;;;4.10;1.67;;;;;;;;;;5050436;28;20072;-79
2023/05/09 08:10:29;;;;;;;;;;;;;;;;;;5052375;28;20044;-80
2023/05/09 08:12:55;;;;;;;4.75;2.20;;;;;;;;;;5049309;28;20008;-80
2023/05/09 08:15:20;;;;;;;7.68;1.70;;;;;;;;;;5050971;28;20124;-80
2023/05/09 08:17:45;;;;;;;5.10;1.70;;;;;;;;;;5053244;28;20442;-80
2023/05/09 08:20:12;;;;;;;4.65;1.80;;;;;;;;;;5052023;28;20471;-78
2023/05/09 08:22:38;;;;;;;3.15;1.60;;;;;;;;;;5060796;28;20041;-79
2023/05/09 08:25:04;;;;;;;4.15;1.40;;;;;;;;;;5055261;28;20033;-81
2023/05/09 08:27:29;;;;;;;3.88;1.80;;;;;;;;;;5052680;28;20045;-80
2023/05/09 08:29:55;;;;;;;5.00;2.00;;;;;;;;;;5062913;28;20033;-80
2023/05/09 08:32:20;;;;;;;4.20;1.50;;;;;;;;;;5055570;28;20389;-79
2023/05/09 08:34:46;;;;;;;4.72;1.58;;;;;;;;;;5055451;28;20595;-80
2023/05/09 08:37:11;;;;;;;4.25;1.50;;;;;;;;;;5040725;28;20028;-80
2023/05/09 08:39:36;;;;;;;3.90;1.95;;;;;;;;;;5054685;28;20112;-80
2023/05/09 08:42:02;;;;;;;4.30;1.50;;;;;;;;;;5055761;28;20063;-79
2023/05/09 08:44:28;;;;;;;3.67;1.50;;;;;;;;;;5063077;28;20057;-79
2023/05/09 08:46:58;;;;;;;4.13;1.40;;;;;;;;;;5053692;28;20400;-80
2023/05/09 08:49:23;;;;;;;3.67;1.52;;;;;;;;;;5053493;28;20033;-80
2023/05/09 08:51:49;;;;;;;3.20;1.30;;;;;;;;;;5024688;28;20037;-80
2023/05/09 08:54:15;;;;;;;3.20;1.30;;;;;;;;;;5025058;28;20042;-79
2023/05/09 08:56:40;;;;;;;4.32;1.30;;;;;;;;;;5050714;28;20500;-81
2023/05/09 08:59:06;;;;;;;3.40;1.40;;;;;;;;;;5058957;28;20037;-81
2023/05/09 09:01:37;;;;;;;4.00;1.58;;;;;;;;;;5048749;28;20083;-80
2023/05/09 09:04:06;;;;;;;3.78;1.58;;;;;;;;;;5057900;28;20523;-80
2023/05/09 09:06:35;;;;;;;3.72;1.65;;;;;;;;;;5056835;28;20135;-80
2023/05/09 09:09:04;;;;;;;3.13;1.33;;;;;;;;;;5062495;28;20520;-80
2023/05/09 09:11:30;;;;;;;3.35;1.48;;;;;;;;;;5040143;28;20480;-81
2023/05/09 09:14:00;;;;;;;3.55;1.52;;;;;;;;;;5059579;28;20391;-80
2023/05/09 09:16:47;;;;;;;2.40;1.10;;;;;;;;;;5045300;28;20044;-81
2023/05/09 09:19:16;;;;;;;3.28;1.10;;;;;;;;;;4981064;28;20084;-81
2023/05/09 09:21:43;;;;;;;2.35;1.15;;;;;;;;;;4971713;28;20066;-81
2023/05/09 09:24:11;;;;;;;2.92;1.00;;;;;;;;;;5004779;28;20048;-80
2023/05/09 09:26:47;;;;;;;3.25;1.23;;;;;;;;;;5019583;28;20373;-80
2023/05/09 09:29:13;;;;;;;3.65;1.02;;;;;;;;;;4959706;28;20750;-81
2023/05/09 09:31:43;;;;;;;2.67;0.95;;;;;;;;;;4966458;28;20042;-80
2023/05/09 09:34:08;;;;;;;3.35;1.10;;;;;;;;;;4961563;28;20281;-80
2023/05/09 09:36:37;;;;;;;2.83;1.00;;;;;;;;;;5001429;28;20034;-80
2023/05/09 09:39:03;;;;;;;3.25;1.23;;;;;;;;;;5004085;28;20414;-81
2023/05/09 09:41:39;;;;;;;2.85;1.13;;;;;;;;;;4986921;28;20042;-80
2023/05/09 09:44:15;;;;;;;3.45;1.33;;;;;;;;;;5019360;28;20038;-81
2023/05/09 09:46:45;;;;;;;2.63;1.20;;;;;;;;;;4996992;28;20037;-80
2023/05/09 09:49:15;;;;;;;3.22;1.13;;;;;;;;;;5019902;28;20275;-80
2023/05/09 09:51:41;;;;;;;2.60;1.20;;;;;;;;;;4993363;28;20534;-81
2023/05/09 09:54:07;;;;;;;2.95;1.20;;;;;;;;;;5020505;28;20108;-80
2023/05/09 09:56:57;;;;;;;3.70;1.57;;;;;;;;;;4995777;28;20029;-80
2023/05/09 09:59:24;;;;;;;3.53;1.30;;;;;;;;;;5034240;28;20553;-81
2023/05/09 10:01:57;;;;;;;4.45;1.50;;;;;;;;;;5032713;28;20036;-81
2023/05/09 10:04:33;;;;;;;3.65;1.50;;;;;;;;;;5042300;28;20041;-81
2023/05/09 10:07:02;;;;;;;8.18;1.30;;;;;;;;;;5033822;28;20033;-80
2023/05/09 10:09:28;;;;;;;4.78;1.40;;;;;;;;;;5025691;28;20052;-80
2023/05/09 10:11:55;;;;;;;2.42;1.20;;;;;;;;;;5032903;28;20032;-81
2023/05/09 10:14:25;;;;;;;3.08;1.35;;;;;;;;;;5034062;28;20507;-80
2023/05/09 10:16:55;;;;;;;5.30;1.33;;;;;;;;;;5041495;28;20039;-81
2023/05/09 10:19:21;;;;;;;3.25;1.25;;;;;;;;;;5031056;28;20386;-80
2023/05/09 10:21:52;;;;;;;2.95;1.23;;;;;;;;;;5032263;28;20500;-79
2023/05/09 10:24:41;;;;;;;2.83;1.20;;;;;;;;;;5037474;28;21241;-79
2023/05/09 10:27:10;;;;;;;3.70;1.45;;;;;;;;;;5039401;28;20056;-79
2023/05/09 10:29:48;;;;;;;4.25;1.58;;;;;;;;;;5027963;28;20037;-81
2023/05/09 10:32:23;;;;;;;5.95;3.00;;;;;;;;;;5057509;28;20055;-81
2023/05/09 10:34:51;;;;;;;3.50;1.58;;;;;;;;;;5040155;28;20757;-81
2023/05/09 10:37:17;;;;;;;3.58;1.20;;;;;;;;;;5051006;28;20033;-81
2023/05/09 10:39:43;;;;;;;2.95;1.33;;;;;;;;;;5052886;28;20105;-81
2023/05/09 10:42:08;;;;;;;4.07;1.65;;;;;;;;;;5051001;28;20044;-81
2023/05/09 10:44:34;;;;;;;3.63;1.52;;;;;;;;;;5049440;28;20039;-80
2023/05/09 10:47:00;;;;;;;4.13;1.30;;;;;;;;;;5058496;28;20036;-80
2023/05/09 10:49:26;;;;;;;4.17;1.57;;;;;;;;;;5054903;28;20070;-81
2023/05/09 10:51:51;;;;;;;3.63;1.40;;;;;;;;;;5051338;28;20110;-81
2023/05/09 10:54:32;;;;;;;3.67;1.30;;;;;;;;;;5053430;28;20036;-81
2023/05/09 10:56:58;;;;;;;3.63;1.20;;;;;;;;;;5048971;28;20051;-79
2023/05/09 10:59:40;;;;;;;3.55;1.30;;;;;;;;;;5053178;28;20048;-81
2023/05/09 11:02:12;;;;;;;4.00;1.50;;;;;;;;;;5044487;28;20986;-80
2023/05/09 11:04:38;;;;;;;2.97;1.40;;;;;;;;;;5037451;28;20037;-80
2023/05/09 11:07:21;;;;;;;2.60;1.20;;;;;;;;;;5045147;28;20029;-80
2023/05/09 11:09:50;;;;;;;3.70;1.30;;;;;;;;;;5052899;28;20279;-81
2023/05/09 11:12:19;;;;;;;5.97;1.23;;;;;;;;;;5054491;28;20029;-80
2023/05/09 11:14:45;;;;;;;6.10;1.70;;;;;;;;;;5066969;28;20048;-81
2023/05/09 11:17:11;;;;;;;3.60;1.30;;;;;;;;;;5051468;28;20179;-78
2023/05/09 11:19:44;;;;;;;3.25;1.17;;;;;;;;;;5060871;28;20567;-80
2023/05/09 11:22:26;;;;;;;3.83;1.20;;;;;;;;;;5051571;28;20478;-79
2023/05/09 11:24:58;;;;;;;3.15;1.40;;;;;;;;;;5056171;28;20792;-79
2023/05/09 11:27:25;;;;;;;3.97;2.08;;;;;;;;;;5049353;28;20057;-80
2023/05/09 11:29:51;;;;;;;3.90;1.40;;;;;;;;;;5061474;28;20021;-79
2023/05/09 11:32:18;;;;;;;3.97;1.20;;;;;;;;;;5051411;28;20032;-80
2023/05/09 11:34:44;;;;;;;3.35;1.38;;;;;;;;;;5050657;28;20542;-79
2023/05/09 11:37:12;;;;;;;8.15;1.40;;;;;;;;;;5067774;28;20464;-79
2023/05/09 11:40:00;;;;;;;4.17;1.50;;;;;;;;;;5053954;28;20057;-79
2023/05/09 11:42:29;;;;;;;4.30;1.40;;;;;;;;;;5050053;28;20037;-80
2023/05/09 11:44:55;;;;;;;5.72;1.35;;;;;;;;;;5047538;28;20401;-79
2023/05/09 11:47:21;;;;;;;3.35;1.30;;;;;;;;;;5052691;28;20053;-79
2023/05/09 11:49:50;;;;;;;2.60;1.10;;;;;;;;;;5044407;28;20045;-78
2023/05/09 11:52:17;;;;;;;4.57;1.48;;;;;;;;;;5038354;28;20645;-79
2023/05/09 11:54:42;;;;;;;;;;;;;;;;;;5061203;28;20483;-78
2023/05/09 11:57:08;;;;;;;2.63;1.10;;;;;;;;;;5049884;28;19917;-81
2023/05/09 11:59:34;;;;;;;5.90;1.40;;;;;;;;;;5036287;28;20045;-79
2023/05/09 12:02:05;;;;;;;3.53;1.40;;;;;;;;;;5034361;28;20432;-80
2023/05/09 12:04:32;;;;;;;4.10;1.40;;;;;;;;;;5050653;28;20037;-82
2023/05/09 12:06:58;;;;;;;4.72;1.33;;;;;;;;;;5056088;28;20112;-82
2023/05/09 12:09:26;;;;;;;4.18;1.50;;;;;;;;;;5050433;28;20051;-81
2023/05/09 12:11:51;;;;;;;2.85;1.23;;;;;;;;;;5036521;28;20078;-81
2023/05/09 12:14:30;;;;;;;2.95;1.33;;;;;;;;;;5049850;28;20489;-81
2023/05/09 12:16:56;;;;;;;3.78;1.40;;;;;;;;;;5050404;28;20029;-81
2023/05/09 12:19:23;;;;;;;4.22;1.42;;;;;;;;;;5042996;28;20048;-80
2023/05/09 12:21:54;;;;;;;6.85;1.90;;;;;;;;;;5035538;28;20816;-80
2023/05/09 12:24:20;;;;;;;4.80;1.80;;;;;;;;;;5053473;28;20059;-81
2023/05/09 12:26:47;;;;;;;7.68;1.55;;;;;;;;;;5052730;28;20041;-80
2023/05/09 12:29:12;;;;;;;4.10;1.70;;;;;;;;;;5035855;28;20040;-80
2023/05/09 12:31:40;;;;;;;4.05;1.50;;;;;;;;;;5050780;28;20077;-80
2023/05/09 12:34:07;;;;;;;4.63;1.33;;;;;;;;;;5033872;28;20028;-80
2023/05/09 12:36:36;;;;;;;3.07;1.37;;;;;;;;;;5041745;28;20509;-80
2023/05/09 12:39:02;;;;;;;4.03;1.70;;;;;;;;;;5053117;28;20037;-80
2023/05/09 12:41:28;;;;;;;4.70;1.50;;;;;;;;;;5056739;28;20648;-78
2023/05/09 12:43:54;;;;;;;5.80;1.63;;;;;;;;;;5053999;28;20041;-80
2023/05/09 12:46:20;;;;;;;3.15;1.50;;;;;;;;;;5054577;28;20442;-80
2023/05/09 12:48:47;;;;;;;4.55;1.70;;;;;;;;;;5053280;28;20040;-80
2023/05/09 12:51:17;;;;;;;4.55;1.55;;;;;;;;;;5051842;28;20095;-80
2023/05/09 12:53:43;;;;;;;4.20;1.70;;;;;;;;;;5051638;28;20029;-80
2023/05/09 12:56:15;;;;;;;5.53;1.67;;;;;;;;;;5048654;28;20111;-80
2023/05/09 12:58:47;;;;;;;4.65;1.60;;;;;;;;;;5050755;28;20051;-80
2023/05/09 13:01:14;;;;;;;4.07;1.60;;;;;;;;;;5052351;28;20443;-80
2023/05/09 13:03:39;;;;;;;4.70;1.52;;;;;;;;;;5050304;28;20033;-80
2023/05/09 13:06:11;;;;;;;3.58;1.58;;;;;;;;;;5048582;28;20102;-80
2023/05/09 13:08:37;;;;;;;4.63;1.60;;;;;;;;;;5053572;28;20062;-81
2023/05/09 13:11:04;;;;;;;6.72;1.63;;;;;;;;;;5055593;28;20028;-80
2023/05/09 13:13:29;;;;;;;3.30;1.40;;;;;;;;;;5041040;28;20037;-81
2023/05/09 13:15:55;;;;;;;4.55;1.73;;;;;;;;;;5054909;28;20047;-80
2023/05/09 13:18:20;;;;;;;4.93;1.73;;;;;;;;;;5056373;28;20036;-77
2023/05/09 13:20:46;;;;;;;9.50;1.70;;;;;;;;;;5059531;28;20576;-78
2023/05/09 13:23:12;;;;;;;4.50;1.65;;;;;;;;;;5059332;28;20063;-78
2023/05/09 13:25:37;;;;;;;4.38;1.42;;;;;;;;;;5038862;28;20052;-81
2023/05/09 13:28:02;;;;;;;3.10;1.70;;;;;;;;;;5053678;28;20040;-80
2023/05/09 13:30:29;;;;;;;3.53;1.70;;;;;;;;;;5037231;28;20043;-79
2023/05/09 13:32:54;;;;;;;3.33;1.67;;;;;;;;;;5063328;28;20061;-81
2023/05/09 13:35:19;;;;;;;3.58;1.50;;;;;;;;;;5055833;28;20120;-81
2023/05/09 13:37:45;;;;;;;2.70;1.27;;;;;;;;;;5057483;28;20597;-81
2023/05/09 13:40:11;;;;;;;3.45;1.40;;;;;;;;;;5063473;28;20037;-80
2023/05/09 13:42:37;;;;;;;3.25;1.50;;;;;;;;;;5051459;28;20107;-81
2023/05/09 13:45:03;;;;;;;6.60;1.30;;;;;;;;;;5055485;28;20041;-80
2023/05/09 13:47:28;;;;;;;2.60;1.20;;;;;;;;;;5058917;28;20103;-80
2023/05/09 13:49:54;;;;;;;6.70;1.42;;;;;;;;;;5041881;28;20048;-81
2023/05/09 13:52:19;;;;;;;4.38;1.60;;;;;;;;;;5060840;28;20111;-81
2023/05/09 13:54:46;;;;;;;3.80;1.50;;;;;;;;;;5054394;28;20595;-80
2023/05/09 13:57:11;;;;;;;7.88;1.63;;;;;;;;;;5051676;28;20158;-80
2023/05/09 13:59:37;;;;;;;3.83;1.40;;;;;;;;;;5040947;28;20056;-81
2023/05/09 14:02:02;;;;;;;3.88;1.00;;;;;;;;;;5054463;28;20060;-81
2023/05/09 14:04:30;;;;;;;4.90;1.30;;;;;;;;;;5054455;28;20485;-81
2023/05/09 14:06:56;;;;;;;4.18;1.30;;;;;;;;;;5037534;28;20033;-81
2023/05/09 14:09:21;;;;;;;3.65;1.25;;;;;;;;;;5038786;28;20496;-81
2023/05/09 14:11:50;;;;;;;3.88;1.30;;;;;;;;;;5052043;28;20517;-81
2023/05/09 14:14:18;;;;;;;1.83;0.90;;;;;;;;;;5055757;28;20040;-80
2023/05/09 14:16:43;;;;;;;3.00;1.45;;;;;;;;;;5051939;28;20032;-81
2023/05/09 14:19:10;;;;;;;3.80;1.30;;;;;;;;;;5042366;28;20040;-80
2023/05/09 14:21:35;;;;;;;2.80;1.25;;;;;;;;;;5053271;28;20045;-81
2023/05/09 14:24:01;;;;;;;6.13;1.45;;;;;;;;;;5055304;28;20086;-80
2023/05/09 14:26:26;;;;;;;3.08;1.35;;;;;;;;;;5069342;28;20516;-80
2023/05/09 14:28:52;;;;;;;2.92;1.25;;;;;;;;;;5052159;28;20378;-80
2023/05/09 14:31:18;;;;;;;4.72;1.60;;;;;;;;;;5053846;28;20223;-80
2023/05/09 14:33:43;;;;;;;4.90;1.52;;;;;;;;;;5051628;28;20106;-79
2023/05/09 14:36:09;;;;;;;4.50;1.60;;;;;;;;;;5053747;28;20726;-79
2023/05/09 14:38:35;;;;;;;4.30;1.48;;;;;;;;;;5061876;28;20156;-79
2023/05/09 14:41:01;;;;;;;3.45;1.27;;;;;;;;;;5052550;28;20037;-80
2023/05/09 14:43:27;;;;;;;3.22;1.30;;;;;;;;;;5056480;28;20033;-80